sensor_id;sensor_type;location;lat;lon;timestamp;P1;durP1;ratioP1;P2;durP2;ratioP2
23814;SDS011;12088;53.078;8.720;2023-04-10T00:00:05;14.40;;;8.57;;
23814;SDS011;12088;53.078;8.720;2023-04-10T00:02:31;22.03;;;7.67;;
23814;SDS011;12088;53.078;8.720;2023-04-10T00:04:58;17.27;;;8.00;;
23814;SDS011;12088;53.078;8.720;2023-04-10T00:07:24;13.50;;;6.83;;
23814;SDS011;12088;53.078;8.720;2023-04-10T00:09:50;17.13;;;7.23;;
23814;SDS011;12088;53.078;8.720;2023-04-10T00:12:16;12.83;;;7.63;;
23814;SDS011;12088;53.078;8.720;2023-04-10T00:14:41;15.87;;;7.37;;
23814;SDS011;12088;53.078;8.720;2023-04-10T00:17:07;13.70;;;7.80;;
23814;SDS011;12088;53.078;8.720;2023-04-10T00:19:32;13.13;;;6.87;;
23814;SDS011;12088;53.078;8.720;2023-04-10T00:21:58;11.67;;;7.07;;
23814;SDS011;12088;53.078;8.720;2023-04-10T00:24:23;18.93;;;7.07;;
23814;SDS011;12088;53.078;8.720;2023-04-10T00:26:49;13.50;;;6.30;;
23814;SDS011;12088;53.078;8.720;2023-04-10T00:29:15;19.20;;;7.93;;
23814;SDS011;12088;53.078;8.720;2023-04-10T00:31:40;15.17;;;6.70;;
23814;SDS011;12088;53.078;8.720;2023-04-10T00:34:06;18.60;;;8.10;;
23814;SDS011;12088;53.078;8.720;2023-04-10T00:36:32;11.77;;;6.40;;
23814;SDS011;12088;53.078;8.720;2023-04-10T00:38:58;13.60;;;6.27;;
23814;SDS011;12088;53.078;8.720;2023-04-10T00:41:24;15.33;;;7.43;;
23814;SDS011;12088;53.078;8.720;2023-04-10T00:43:53;18.40;;;8.20;;
23814;SDS011;12088;53.078;8.720;2023-04-10T00:46:22;16.97;;;7.33;;
23814;SDS011;12088;53.078;8.720;2023-04-10T00:48:49;17.80;;;7.23;;
23814;SDS011;12088;53.078;8.720;2023-04-10T00:51:16;12.50;;;7.27;;
23814;SDS011;12088;53.078;8.720;2023-04-10T00:53:45;12.27;;;7.37;;
23814;SDS011;12088;53.078;8.720;2023-04-10T00:56:11;19.17;;;8.50;;
23814;SDS011;12088;53.078;8.720;2023-04-10T00:58:37;18.97;;;7.70;;
23814;SDS011;12088;53.078;8.720;2023-04-10T01:01:03;14.30;;;7.03;;
23814;SDS011;12088;53.078;8.720;2023-04-10T01:03:28;11.73;;;5.57;;
23814;SDS011;12088;53.078;8.720;2023-04-10T01:09:04;19.57;;;7.30;;
23814;SDS011;12088;53.078;8.720;2023-04-10T01:11:37;17.43;;;7.90;;
23814;SDS011;12088;53.078;8.720;2023-04-10T01:14:18;17.30;;;7.53;;
23814;SDS011;12088;53.078;8.720;2023-04-10T01:16:50;16.13;;;7.33;;
23814;SDS011;12088;53.078;8.720;2023-04-10T01:20:06;13.77;;;7.03;;
23814;SDS011;12088;53.078;8.720;2023-04-10T01:22:16;18.33;;;8.13;;
23814;SDS011;12088;53.078;8.720;2023-04-10T01:28:08;16.83;;;6.67;;
23814;SDS011;12088;53.078;8.720;2023-04-10T01:30:23;16.67;;;7.90;;
23814;SDS011;12088;53.078;8.720;2023-04-10T01:32:49;18.93;;;7.73;;
23814;SDS011;12088;53.078;8.720;2023-04-10T01:35:19;22.67;;;7.33;;
23814;SDS011;12088;53.078;8.720;2023-04-10T01:37:46;15.73;;;8.03;;
23814;SDS011;12088;53.078;8.720;2023-04-10T01:40:16;17.93;;;9.33;;
23814;SDS011;12088;53.078;8.720;2023-04-10T01:42:46;17.60;;;7.93;;
23814;SDS011;12088;53.078;8.720;2023-04-10T01:45:17;14.53;;;6.40;;
23814;SDS011;12088;53.078;8.720;2023-04-10T01:47:44;18.90;;;8.40;;
23814;SDS011;12088;53.078;8.720;2023-04-10T01:50:11;17.90;;;7.33;;
23814;SDS011;12088;53.078;8.720;2023-04-10T01:52:38;14.27;;;7.50;;
23814;SDS011;12088;53.078;8.720;2023-04-10T01:55:05;25.07;;;7.53;;
23814;SDS011;12088;53.078;8.720;2023-04-10T01:57:31;15.50;;;8.97;;
23814;SDS011;12088;53.078;8.720;2023-04-10T01:59:59;19.00;;;8.33;;
23814;SDS011;12088;53.078;8.720;2023-04-10T02:02:28;20.90;;;8.63;;
23814;SDS011;12088;53.078;8.720;2023-04-10T02:04:57;17.60;;;7.83;;
23814;SDS011;12088;53.078;8.720;2023-04-10T02:07:28;22.20;;;7.90;;
23814;SDS011;12088;53.078;8.720;2023-04-10T02:10:08;16.77;;;7.17;;
23814;SDS011;12088;53.078;8.720;2023-04-10T02:12:38;12.43;;;7.13;;
23814;SDS011;12088;53.078;8.720;2023-04-10T02:15:09;15.07;;;7.73;;
23814;SDS011;12088;53.078;8.720;2023-04-10T02:17:36;14.37;;;7.47;;
23814;SDS011;12088;53.078;8.720;2023-04-10T02:20:03;20.30;;;9.37;;
23814;SDS011;12088;53.078;8.720;2023-04-10T02:22:31;18.30;;;8.53;;
23814;SDS011;12088;53.078;8.720;2023-04-10T02:24:57;21.77;;;9.17;;
23814;SDS011;12088;53.078;8.720;2023-04-10T02:27:27;16.77;;;7.93;;
23814;SDS011;12088;53.078;8.720;2023-04-10T02:29:54;19.53;;;8.17;;
23814;SDS011;12088;53.078;8.720;2023-04-10T02:32:19;14.37;;;8.33;;
23814;SDS011;12088;53.078;8.720;2023-04-10T02:34:44;13.93;;;6.87;;
23814;SDS011;12088;53.078;8.720;2023-04-10T02:37:10;14.83;;;7.87;;
23814;SDS011;12088;53.078;8.720;2023-04-10T02:39:35;13.47;;;7.47;;
23814;SDS011;12088;53.078;8.720;2023-04-10T02:42:01;10.00;;;7.70;;
23814;SDS011;12088;53.078;8.720;2023-04-10T02:44:26;22.67;;;9.07;;
23814;SDS011;12088;53.078;8.720;2023-04-10T02:46:52;17.67;;;8.10;;
23814;SDS011;12088;53.078;8.720;2023-04-10T02:49:17;19.27;;;8.70;;
23814;SDS011;12088;53.078;8.720;2023-04-10T02:51:43;13.57;;;7.60;;
23814;SDS011;12088;53.078;8.720;2023-04-10T02:54:08;16.27;;;8.60;;
23814;SDS011;12088;53.078;8.720;2023-04-10T02:56:34;17.83;;;8.00;;
23814;SDS011;12088;53.078;8.720;2023-04-10T02:58:59;20.77;;;9.57;;
23814;SDS011;12088;53.078;8.720;2023-04-10T03:01:25;19.43;;;8.47;;
23814;SDS011;12088;53.078;8.720;2023-04-10T03:03:51;21.00;;;9.17;;
23814;SDS011;12088;53.078;8.720;2023-04-10T03:06:16;28.27;;;8.30;;
23814;SDS011;12088;53.078;8.720;2023-04-10T03:08:42;18.80;;;7.53;;
23814;SDS011;12088;53.078;8.720;2023-04-10T03:11:07;21.47;;;8.63;;
23814;SDS011;12088;53.078;8.720;2023-04-10T03:13:33;16.23;;;8.40;;
23814;SDS011;12088;53.078;8.720;2023-04-10T03:15:59;16.70;;;8.80;;
23814;SDS011;12088;53.078;8.720;2023-04-10T03:18:24;16.13;;;8.13;;
23814;SDS011;12088;53.078;8.720;2023-04-10T03:20:50;17.63;;;8.77;;
23814;SDS011;12088;53.078;8.720;2023-04-10T03:23:15;18.53;;;9.67;;
23814;SDS011;12088;53.078;8.720;2023-04-10T03:25:41;25.40;;;9.60;;
23814;SDS011;12088;53.078;8.720;2023-04-10T03:28:07;18.30;;;7.33;;
23814;SDS011;12088;53.078;8.720;2023-04-10T03:30:32;16.37;;;8.50;;
23814;SDS011;12088;53.078;8.720;2023-04-10T03:33:00;15.93;;;8.07;;
23814;SDS011;12088;53.078;8.720;2023-04-10T03:35:26;20.27;;;7.60;;
23814;SDS011;12088;53.078;8.720;2023-04-10T03:37:52;21.77;;;10.23;;
23814;SDS011;12088;53.078;8.720;2023-04-10T03:40:17;18.67;;;8.93;;
23814;SDS011;12088;53.078;8.720;2023-04-10T03:42:43;18.20;;;8.73;;
23814;SDS011;12088;53.078;8.720;2023-04-10T03:45:08;18.57;;;9.50;;
23814;SDS011;12088;53.078;8.720;2023-04-10T03:47:34;18.23;;;8.03;;
23814;SDS011;12088;53.078;8.720;2023-04-10T03:50:00;23.17;;;9.33;;
23814;SDS011;12088;53.078;8.720;2023-04-10T03:52:26;15.17;;;7.90;;
23814;SDS011;12088;53.078;8.720;2023-04-10T03:54:52;17.10;;;6.87;;
23814;SDS011;12088;53.078;8.720;2023-04-10T03:57:18;18.63;;;8.57;;
23814;SDS011;12088;53.078;8.720;2023-04-10T03:59:45;22.87;;;9.03;;
23814;SDS011;12088;53.078;8.720;2023-04-10T04:02:13;18.30;;;8.33;;
23814;SDS011;12088;53.078;8.720;2023-04-10T04:04:39;22.93;;;8.17;;
23814;SDS011;12088;53.078;8.720;2023-04-10T04:07:05;22.10;;;7.17;;
23814;SDS011;12088;53.078;8.720;2023-04-10T04:09:30;19.27;;;8.00;;
23814;SDS011;12088;53.078;8.720;2023-04-10T04:11:56;16.73;;;7.57;;
23814;SDS011;12088;53.078;8.720;2023-04-10T04:14:22;19.30;;;8.87;;
23814;SDS011;12088;53.078;8.720;2023-04-10T04:16:47;17.90;;;8.73;;
23814;SDS011;12088;53.078;8.720;2023-04-10T04:19:13;22.73;;;9.93;;
23814;SDS011;12088;53.078;8.720;2023-04-10T04:21:39;13.00;;;7.80;;
23814;SDS011;12088;53.078;8.720;2023-04-10T04:24:04;18.33;;;9.33;;
23814;SDS011;12088;53.078;8.720;2023-04-10T04:26:30;23.93;;;10.43;;
23814;SDS011;12088;53.078;8.720;2023-04-10T04:28:55;20.10;;;9.47;;
23814;SDS011;12088;53.078;8.720;2023-04-10T04:31:21;27.30;;;9.57;;
23814;SDS011;12088;53.078;8.720;2023-04-10T04:33:48;17.40;;;8.47;;
23814;SDS011;12088;53.078;8.720;2023-04-10T04:36:13;26.77;;;9.93;;
23814;SDS011;12088;53.078;8.720;2023-04-10T04:38:39;29.50;;;9.57;;
23814;SDS011;12088;53.078;8.720;2023-04-10T04:41:04;19.87;;;8.70;;
23814;SDS011;12088;53.078;8.720;2023-04-10T04:43:30;24.47;;;10.67;;
23814;SDS011;12088;53.078;8.720;2023-04-10T04:45:56;17.63;;;9.10;;
23814;SDS011;12088;53.078;8.720;2023-04-10T04:48:21;21.30;;;9.03;;
23814;SDS011;12088;53.078;8.720;2023-04-10T04:50:47;17.27;;;8.23;;
23814;SDS011;12088;53.078;8.720;2023-04-10T04:53:12;16.17;;;8.43;;
23814;SDS011;12088;53.078;8.720;2023-04-10T04:55:38;17.63;;;8.17;;
23814;SDS011;12088;53.078;8.720;2023-04-10T04:58:03;17.20;;;8.63;;
23814;SDS011;12088;53.078;8.720;2023-04-10T05:00:29;17.27;;;8.43;;
23814;SDS011;12088;53.078;8.720;2023-04-10T05:02:54;19.63;;;9.63;;
23814;SDS011;12088;53.078;8.720;2023-04-10T05:05:20;18.03;;;9.57;;
23814;SDS011;12088;53.078;8.720;2023-04-10T05:07:46;19.53;;;8.10;;
23814;SDS011;12088;53.078;8.720;2023-04-10T05:10:11;18.80;;;10.23;;
23814;SDS011;12088;53.078;8.720;2023-04-10T05:12:36;20.90;;;9.00;;
23814;SDS011;12088;53.078;8.720;2023-04-10T05:15:02;23.50;;;9.83;;
23814;SDS011;12088;53.078;8.720;2023-04-10T05:17:28;21.67;;;9.33;;
23814;SDS011;12088;53.078;8.720;2023-04-10T05:19:53;24.73;;;9.27;;
23814;SDS011;12088;53.078;8.720;2023-04-10T05:22:19;20.87;;;8.97;;
23814;SDS011;12088;53.078;8.720;2023-04-10T05:24:45;15.50;;;7.47;;
23814;SDS011;12088;53.078;8.720;2023-04-10T05:27:10;22.33;;;10.87;;
23814;SDS011;12088;53.078;8.720;2023-04-10T05:29:36;16.83;;;7.27;;
23814;SDS011;12088;53.078;8.720;2023-04-10T05:32:01;20.40;;;10.37;;
23814;SDS011;12088;53.078;8.720;2023-04-10T05:34:26;22.70;;;7.93;;
23814;SDS011;12088;53.078;8.720;2023-04-10T05:36:52;23.43;;;9.17;;
23814;SDS011;12088;53.078;8.720;2023-04-10T05:39:17;19.27;;;9.67;;
23814;SDS011;12088;53.078;8.720;2023-04-10T05:41:43;14.30;;;8.10;;
23814;SDS011;12088;53.078;8.720;2023-04-10T05:44:08;23.17;;;9.43;;
23814;SDS011;12088;53.078;8.720;2023-04-10T05:46:34;16.13;;;8.20;;
23814;SDS011;12088;53.078;8.720;2023-04-10T05:48:59;20.17;;;8.20;;
23814;SDS011;12088;53.078;8.720;2023-04-10T05:51:25;20.57;;;9.20;;
23814;SDS011;12088;53.078;8.720;2023-04-10T05:53:51;16.23;;;10.43;;
23814;SDS011;12088;53.078;8.720;2023-04-10T05:56:16;25.60;;;11.63;;
23814;SDS011;12088;53.078;8.720;2023-04-10T05:58:42;20.73;;;9.53;;
23814;SDS011;12088;53.078;8.720;2023-04-10T06:01:07;21.30;;;9.73;;
23814;SDS011;12088;53.078;8.720;2023-04-10T06:03:33;20.27;;;8.60;;
23814;SDS011;12088;53.078;8.720;2023-04-10T06:05:59;16.37;;;8.27;;
23814;SDS011;12088;53.078;8.720;2023-04-10T06:08:26;15.23;;;7.50;;
23814;SDS011;12088;53.078;8.720;2023-04-10T06:10:51;17.33;;;7.83;;
23814;SDS011;12088;53.078;8.720;2023-04-10T06:13:17;19.90;;;8.37;;
23814;SDS011;12088;53.078;8.720;2023-04-10T06:15:43;17.00;;;8.40;;
23814;SDS011;12088;53.078;8.720;2023-04-10T06:18:08;17.20;;;7.97;;
23814;SDS011;12088;53.078;8.720;2023-04-10T06:20:34;19.20;;;8.93;;
23814;SDS011;12088;53.078;8.720;2023-04-10T06:22:59;15.63;;;7.23;;
23814;SDS011;12088;53.078;8.720;2023-04-10T06:25:25;15.60;;;7.63;;
23814;SDS011;12088;53.078;8.720;2023-04-10T06:27:50;15.00;;;7.10;;
23814;SDS011;12088;53.078;8.720;2023-04-10T06:30:16;15.73;;;7.60;;
23814;SDS011;12088;53.078;8.720;2023-04-10T06:32:41;18.63;;;9.60;;
23814;SDS011;12088;53.078;8.720;2023-04-10T06:35:07;19.77;;;8.83;;
23814;SDS011;12088;53.078;8.720;2023-04-10T06:37:33;16.70;;;8.90;;
23814;SDS011;12088;53.078;8.720;2023-04-10T06:40:08;19.13;;;8.30;;
23814;SDS011;12088;53.078;8.720;2023-04-10T06:42:35;17.80;;;7.93;;
23814;SDS011;12088;53.078;8.720;2023-04-10T06:45:01;21.27;;;9.43;;
23814;SDS011;12088;53.078;8.720;2023-04-10T06:47:27;13.43;;;7.23;;
23814;SDS011;12088;53.078;8.720;2023-04-10T06:49:53;17.17;;;8.20;;
23814;SDS011;12088;53.078;8.720;2023-04-10T06:52:19;17.80;;;8.17;;
23814;SDS011;12088;53.078;8.720;2023-04-10T06:54:45;13.50;;;7.57;;
23814;SDS011;12088;53.078;8.720;2023-04-10T06:57:10;15.70;;;7.33;;
23814;SDS011;12088;53.078;8.720;2023-04-10T06:59:36;12.37;;;7.63;;
23814;SDS011;12088;53.078;8.720;2023-04-10T07:02:04;16.40;;;7.07;;
23814;SDS011;12088;53.078;8.720;2023-04-10T07:04:30;14.97;;;7.90;;
23814;SDS011;12088;53.078;8.720;2023-04-10T07:06:56;15.77;;;6.93;;
23814;SDS011;12088;53.078;8.720;2023-04-10T07:09:22;14.60;;;7.60;;
23814;SDS011;12088;53.078;8.720;2023-04-10T07:11:51;16.73;;;6.67;;
23814;SDS011;12088;53.078;8.720;2023-04-10T07:14:17;14.70;;;6.40;;
23814;SDS011;12088;53.078;8.720;2023-04-10T07:16:42;12.00;;;6.43;;
23814;SDS011;12088;53.078;8.720;2023-04-10T07:19:08;12.70;;;7.00;;
23814;SDS011;12088;53.078;8.720;2023-04-10T07:21:33;15.40;;;7.30;;
23814;SDS011;12088;53.078;8.720;2023-04-10T07:23:59;17.90;;;7.03;;
23814;SDS011;12088;53.078;8.720;2023-04-10T07:26:25;12.30;;;5.77;;
23814;SDS011;12088;53.078;8.720;2023-04-10T07:28:50;15.73;;;6.40;;
23814;SDS011;12088;53.078;8.720;2023-04-10T07:31:16;13.33;;;6.03;;
23814;SDS011;12088;53.078;8.720;2023-04-10T07:33:42;14.00;;;6.30;;
23814;SDS011;12088;53.078;8.720;2023-04-10T07:36:09;13.53;;;6.50;;
23814;SDS011;12088;53.078;8.720;2023-04-10T07:38:34;12.27;;;6.10;;
23814;SDS011;12088;53.078;8.720;2023-04-10T07:41:00;12.03;;;5.57;;
23814;SDS011;12088;53.078;8.720;2023-04-10T07:43:25;12.33;;;5.97;;
23814;SDS011;12088;53.078;8.720;2023-04-10T07:45:51;12.20;;;6.07;;
23814;SDS011;12088;53.078;8.720;2023-04-10T07:48:17;15.20;;;5.03;;
23814;SDS011;12088;53.078;8.720;2023-04-10T07:50:42;7.30;;;4.13;;
23814;SDS011;12088;53.078;8.720;2023-04-10T07:53:08;13.63;;;5.00;;
23814;SDS011;12088;53.078;8.720;2023-04-10T07:55:37;10.07;;;4.90;;
23814;SDS011;12088;53.078;8.720;2023-04-10T07:58:03;8.33;;;4.23;;
23814;SDS011;12088;53.078;8.720;2023-04-10T08:00:30;9.97;;;5.03;;
23814;SDS011;12088;53.078;8.720;2023-04-10T08:02:56;11.83;;;5.20;;
23814;SDS011;12088;53.078;8.720;2023-04-10T08:05:21;13.87;;;5.27;;
23814;SDS011;12088;53.078;8.720;2023-04-10T08:07:47;8.80;;;4.33;;
23814;SDS011;12088;53.078;8.720;2023-04-10T08:10:12;7.73;;;4.13;;
23814;SDS011;12088;53.078;8.720;2023-04-10T08:12:38;8.63;;;4.83;;
23814;SDS011;12088;53.078;8.720;2023-04-10T08:15:04;10.07;;;4.33;;
23814;SDS011;12088;53.078;8.720;2023-04-10T08:17:30;12.43;;;5.30;;
23814;SDS011;12088;53.078;8.720;2023-04-10T08:19:55;9.17;;;4.70;;
23814;SDS011;12088;53.078;8.720;2023-04-10T08:22:21;8.00;;;4.00;;
23814;SDS011;12088;53.078;8.720;2023-04-10T08:24:46;6.60;;;3.80;;
23814;SDS011;12088;53.078;8.720;2023-04-10T08:27:12;8.53;;;4.53;;
23814;SDS011;12088;53.078;8.720;2023-04-10T08:29:39;6.37;;;3.50;;
23814;SDS011;12088;53.078;8.720;2023-04-10T08:32:05;9.70;;;4.23;;
23814;SDS011;12088;53.078;8.720;2023-04-10T08:34:31;6.47;;;3.40;;
23814;SDS011;12088;53.078;8.720;2023-04-10T08:36:56;11.27;;;3.80;;
23814;SDS011;12088;53.078;8.720;2023-04-10T08:39:22;5.53;;;3.80;;
23814;SDS011;12088;53.078;8.720;2023-04-10T08:41:47;5.45;;;2.95;;
23814;SDS011;12088;53.078;8.720;2023-04-10T08:44:13;7.57;;;3.72;;
23814;SDS011;12088;53.078;8.720;2023-04-10T08:46:41;10.18;;;4.10;;
23814;SDS011;12088;53.078;8.720;2023-04-10T08:49:09;10.10;;;3.90;;
23814;SDS011;12088;53.078;8.720;2023-04-10T08:51:45;7.53;;;4.18;;
23814;SDS011;12088;53.078;8.720;2023-04-10T08:54:20;6.50;;;4.18;;
23814;SDS011;12088;53.078;8.720;2023-04-10T08:56:52;9.52;;;4.00;;
23814;SDS011;12088;53.078;8.720;2023-04-10T08:59:18;5.47;;;3.75;;
23814;SDS011;12088;53.078;8.720;2023-04-10T09:01:44;6.47;;;4.03;;
23814;SDS011;12088;53.078;8.720;2023-04-10T09:04:11;7.70;;;3.63;;
23814;SDS011;12088;53.078;8.720;2023-04-10T09:06:37;7.80;;;3.97;;
23814;SDS011;12088;53.078;8.720;2023-04-10T09:09:04;8.00;;;3.55;;
23814;SDS011;12088;53.078;8.720;2023-04-10T09:14:24;5.07;;;3.22;;
23814;SDS011;12088;53.078;8.720;2023-04-10T09:17:09;6.07;;;3.00;;
23814;SDS011;12088;53.078;8.720;2023-04-10T09:19:43;6.50;;;3.53;;
23814;SDS011;12088;53.078;8.720;2023-04-10T09:22:10;5.65;;;3.08;;
23814;SDS011;12088;53.078;8.720;2023-04-10T09:24:36;5.03;;;2.92;;
23814;SDS011;12088;53.078;8.720;2023-04-10T09:27:06;5.03;;;2.90;;
23814;SDS011;12088;53.078;8.720;2023-04-10T09:29:42;4.80;;;3.17;;
23814;SDS011;12088;53.078;8.720;2023-04-10T09:32:10;8.70;;;3.00;;
23814;SDS011;12088;53.078;8.720;2023-04-10T09:34:50;4.63;;;2.72;;
23814;SDS011;12088;53.078;8.720;2023-04-10T09:37:17;4.13;;;2.97;;
23814;SDS011;12088;53.078;8.720;2023-04-10T09:39:44;5.32;;;2.75;;
23814;SDS011;12088;53.078;8.720;2023-04-10T09:42:10;5.97;;;3.22;;
23814;SDS011;12088;53.078;8.720;2023-04-10T09:44:37;8.13;;;3.55;;
23814;SDS011;12088;53.078;8.720;2023-04-10T09:49:51;4.32;;;3.03;;
23814;SDS011;12088;53.078;8.720;2023-04-10T09:52:32;4.78;;;3.22;;
23814;SDS011;12088;53.078;8.720;2023-04-10T09:55:00;4.95;;;3.05;;
23814;SDS011;12088;53.078;8.720;2023-04-10T09:57:31;7.07;;;3.78;;
23814;SDS011;12088;53.078;8.720;2023-04-10T09:59:58;5.75;;;2.97;;
23814;SDS011;12088;53.078;8.720;2023-04-10T10:02:27;5.30;;;3.33;;
23814;SDS011;12088;53.078;8.720;2023-04-10T10:04:53;6.95;;;3.13;;
23814;SDS011;12088;53.078;8.720;2023-04-10T10:07:20;4.03;;;2.70;;
23814;SDS011;12088;53.078;8.720;2023-04-10T10:09:48;7.63;;;3.00;;
23814;SDS011;12088;53.078;8.720;2023-04-10T10:12:15;3.80;;;2.85;;
23814;SDS011;12088;53.078;8.720;2023-04-10T10:15:10;6.00;;;3.80;;
23814;SDS011;12088;53.078;8.720;2023-04-10T10:17:38;3.13;;;2.50;;
23814;SDS011;12088;53.078;8.720;2023-04-10T10:20:11;4.78;;;2.70;;
23814;SDS011;12088;53.078;8.720;2023-04-10T10:22:40;5.60;;;2.63;;
23814;SDS011;12088;53.078;8.720;2023-04-10T10:25:06;4.05;;;3.28;;
23814;SDS011;12088;53.078;8.720;2023-04-10T10:27:35;6.53;;;3.38;;
23814;SDS011;12088;53.078;8.720;2023-04-10T10:30:02;5.82;;;3.40;;
23814;SDS011;12088;53.078;8.720;2023-04-10T10:32:30;5.43;;;3.65;;
23814;SDS011;12088;53.078;8.720;2023-04-10T10:34:56;4.80;;;3.05;;
23814;SDS011;12088;53.078;8.720;2023-04-10T10:37:22;7.05;;;2.70;;
23814;SDS011;12088;53.078;8.720;2023-04-10T10:40:03;3.78;;;2.78;;
23814;SDS011;12088;53.078;8.720;2023-04-10T10:42:44;5.25;;;3.00;;
23814;SDS011;12088;53.078;8.720;2023-04-10T10:45:16;6.00;;;2.83;;
23814;SDS011;12088;53.078;8.720;2023-04-10T10:47:46;4.85;;;3.00;;
23814;SDS011;12088;53.078;8.720;2023-04-10T10:50:15;13.30;;;3.47;;
23814;SDS011;12088;53.078;8.720;2023-04-10T10:58:04;5.47;;;3.38;;
23814;SDS011;12088;53.078;8.720;2023-04-10T11:05:53;3.95;;;2.63;;
23814;SDS011;12088;53.078;8.720;2023-04-10T11:08:34;4.68;;;2.72;;
23814;SDS011;12088;53.078;8.720;2023-04-10T11:11:01;4.90;;;3.08;;
23814;SDS011;12088;53.078;8.720;2023-04-10T11:13:31;5.50;;;2.53;;
23814;SDS011;12088;53.078;8.720;2023-04-10T11:15:58;2.95;;;2.58;;
23814;SDS011;12088;53.078;8.720;2023-04-10T11:24:00;5.40;;;2.63;;
23814;SDS011;12088;53.078;8.720;2023-04-10T11:31:58;4.05;;;2.60;;
23814;SDS011;12088;53.078;8.720;2023-04-10T11:34:25;3.08;;;2.33;;
23814;SDS011;12088;53.078;8.720;2023-04-10T11:36:57;3.50;;;2.25;;
23814;SDS011;12088;53.078;8.720;2023-04-10T11:39:25;4.45;;;2.53;;
23814;SDS011;12088;53.078;8.720;2023-04-10T11:41:52;4.68;;;3.05;;
23814;SDS011;12088;53.078;8.720;2023-04-10T11:46:50;3.25;;;2.42;;
23814;SDS011;12088;53.078;8.720;2023-04-10T11:49:17;3.70;;;2.85;;
23814;SDS011;12088;53.078;8.720;2023-04-10T11:51:48;2.97;;;2.00;;
23814;SDS011;12088;53.078;8.720;2023-04-10T11:54:18;2.67;;;2.10;;
23814;SDS011;12088;53.078;8.720;2023-04-10T11:56:54;6.38;;;3.08;;
23814;SDS011;12088;53.078;8.720;2023-04-10T11:59:28;5.55;;;2.55;;
23814;SDS011;12088;53.078;8.720;2023-04-10T12:02:04;5.00;;;2.28;;
23814;SDS011;12088;53.078;8.720;2023-04-10T12:04:41;4.35;;;2.08;;
23814;SDS011;12088;53.078;8.720;2023-04-10T12:07:08;4.40;;;2.65;;
23814;SDS011;12088;53.078;8.720;2023-04-10T12:09:33;2.28;;;1.52;;
23814;SDS011;12088;53.078;8.720;2023-04-10T12:12:03;4.05;;;2.22;;
23814;SDS011;12088;53.078;8.720;2023-04-10T12:14:31;2.92;;;1.92;;
23814;SDS011;12088;53.078;8.720;2023-04-10T12:17:01;4.43;;;2.60;;
23814;SDS011;12088;53.078;8.720;2023-04-10T12:19:27;3.17;;;2.00;;
23814;SDS011;12088;53.078;8.720;2023-04-10T12:21:54;3.85;;;2.33;;
23814;SDS011;12088;53.078;8.720;2023-04-10T12:24:42;2.75;;;1.80;;
23814;SDS011;12088;53.078;8.720;2023-04-10T12:27:14;13.75;;;2.75;;
23814;SDS011;12088;53.078;8.720;2023-04-10T12:29:41;3.67;;;2.55;;
23814;SDS011;12088;53.078;8.720;2023-04-10T12:32:07;4.10;;;2.40;;
23814;SDS011;12088;53.078;8.720;2023-04-10T12:34:33;3.03;;;1.90;;
23814;SDS011;12088;53.078;8.720;2023-04-10T12:36:59;4.32;;;2.22;;
23814;SDS011;12088;53.078;8.720;2023-04-10T12:39:24;5.00;;;2.58;;
23814;SDS011;12088;53.078;8.720;2023-04-10T12:41:50;2.95;;;2.20;;
23814;SDS011;12088;53.078;8.720;2023-04-10T12:44:16;3.88;;;2.30;;
23814;SDS011;12088;53.078;8.720;2023-04-10T12:46:43;2.75;;;1.90;;
23814;SDS011;12088;53.078;8.720;2023-04-10T12:49:10;2.85;;;2.13;;
23814;SDS011;12088;53.078;8.720;2023-04-10T12:51:41;2.58;;;1.67;;
23814;SDS011;12088;53.078;8.720;2023-04-10T12:54:08;3.65;;;1.92;;
23814;SDS011;12088;53.078;8.720;2023-04-10T12:56:43;2.95;;;1.88;;
23814;SDS011;12088;53.078;8.720;2023-04-10T12:59:12;5.50;;;1.83;;
23814;SDS011;12088;53.078;8.720;2023-04-10T13:01:38;3.15;;;2.22;;
23814;SDS011;12088;53.078;8.720;2023-04-10T13:04:03;2.85;;;1.85;;
23814;SDS011;12088;53.078;8.720;2023-04-10T13:06:29;2.55;;;1.88;;
23814;SDS011;12088;53.078;8.720;2023-04-10T13:08:54;4.22;;;2.97;;
23814;SDS011;12088;53.078;8.720;2023-04-10T13:11:20;2.40;;;1.80;;
23814;SDS011;12088;53.078;8.720;2023-04-10T13:13:47;2.67;;;2.05;;
23814;SDS011;12088;53.078;8.720;2023-04-10T13:16:12;3.45;;;1.83;;
23814;SDS011;12088;53.078;8.720;2023-04-10T13:18:38;5.72;;;1.85;;
23814;SDS011;12088;53.078;8.720;2023-04-10T13:21:03;5.45;;;1.77;;
23814;SDS011;12088;53.078;8.720;2023-04-10T13:23:29;5.97;;;2.08;;
23814;SDS011;12088;53.078;8.720;2023-04-10T13:25:55;3.10;;;1.92;;
23814;SDS011;12088;53.078;8.720;2023-04-10T13:28:22;3.25;;;2.00;;
23814;SDS011;12088;53.078;8.720;2023-04-10T13:30:48;3.08;;;2.05;;
23814;SDS011;12088;53.078;8.720;2023-04-10T13:33:14;3.78;;;2.20;;
23814;SDS011;12088;53.078;8.720;2023-04-10T13:35:39;2.28;;;1.90;;
23814;SDS011;12088;53.078;8.720;2023-04-10T13:38:05;2.83;;;1.70;;
23814;SDS011;12088;53.078;8.720;2023-04-10T13:40:31;1.73;;;1.52;;
23814;SDS011;12088;53.078;8.720;2023-04-10T13:42:57;4.72;;;1.83;;
23814;SDS011;12088;53.078;8.720;2023-04-10T13:45:22;2.45;;;1.48;;
23814;SDS011;12088;53.078;8.720;2023-04-10T13:47:48;2.13;;;1.88;;
23814;SDS011;12088;53.078;8.720;2023-04-10T13:50:13;2.50;;;1.90;;
23814;SDS011;12088;53.078;8.720;2023-04-10T13:52:39;2.22;;;1.70;;
23814;SDS011;12088;53.078;8.720;2023-04-10T13:55:04;1.40;;;1.30;;
23814;SDS011;12088;53.078;8.720;2023-04-10T13:57:30;2.60;;;1.67;;
23814;SDS011;12088;53.078;8.720;2023-04-10T13:59:56;2.58;;;1.63;;
23814;SDS011;12088;53.078;8.720;2023-04-10T14:02:21;2.65;;;1.65;;
23814;SDS011;12088;53.078;8.720;2023-04-10T14:04:47;2.65;;;1.80;;
23814;SDS011;12088;53.078;8.720;2023-04-10T14:07:13;2.42;;;1.80;;
23814;SDS011;12088;53.078;8.720;2023-04-10T14:09:39;1.63;;;1.50;;
23814;SDS011;12088;53.078;8.720;2023-04-10T14:12:04;3.80;;;2.00;;
23814;SDS011;12088;53.078;8.720;2023-04-10T14:14:30;2.35;;;1.42;;
23814;SDS011;12088;53.078;8.720;2023-04-10T14:16:55;2.00;;;1.50;;
23814;SDS011;12088;53.078;8.720;2023-04-10T14:19:21;2.05;;;1.60;;
23814;SDS011;12088;53.078;8.720;2023-04-10T14:21:46;2.53;;;1.40;;
23814;SDS011;12088;53.078;8.720;2023-04-10T14:24:12;1.75;;;1.30;;
23814;SDS011;12088;53.078;8.720;2023-04-10T14:26:37;1.73;;;1.20;;
23814;SDS011;12088;53.078;8.720;2023-04-10T14:29:03;2.05;;;1.35;;
23814;SDS011;12088;53.078;8.720;2023-04-10T14:31:31;2.75;;;1.70;;
23814;SDS011;12088;53.078;8.720;2023-04-10T14:33:57;1.67;;;1.40;;
23814;SDS011;12088;53.078;8.720;2023-04-10T14:36:22;3.10;;;1.30;;
23814;SDS011;12088;53.078;8.720;2023-04-10T14:38:48;2.17;;;1.50;;
23814;SDS011;12088;53.078;8.720;2023-04-10T14:41:13;1.67;;;1.08;;
23814;SDS011;12088;53.078;8.720;2023-04-10T14:43:39;2.88;;;1.67;;
23814;SDS011;12088;53.078;8.720;2023-04-10T14:46:04;1.52;;;1.42;;
23814;SDS011;12088;53.078;8.720;2023-04-10T14:48:30;4.15;;;1.95;;
23814;SDS011;12088;53.078;8.720;2023-04-10T14:50:56;1.95;;;1.10;;
23814;SDS011;12088;53.078;8.720;2023-04-10T14:53:22;2.63;;;1.70;;
23814;SDS011;12088;53.078;8.720;2023-04-10T14:55:48;1.73;;;1.63;;
23814;SDS011;12088;53.078;8.720;2023-04-10T14:58:14;2.95;;;1.95;;
23814;SDS011;12088;53.078;8.720;2023-04-10T15:00:39;3.45;;;2.25;;
23814;SDS011;12088;53.078;8.720;2023-04-10T15:03:05;5.32;;;1.73;;
23814;SDS011;12088;53.078;8.720;2023-04-10T15:05:32;2.22;;;1.67;;
23814;SDS011;12088;53.078;8.720;2023-04-10T15:07:58;2.22;;;1.38;;
23814;SDS011;12088;53.078;8.720;2023-04-10T15:10:23;1.80;;;1.65;;
23814;SDS011;12088;53.078;8.720;2023-04-10T15:12:49;2.47;;;1.63;;
23814;SDS011;12088;53.078;8.720;2023-04-10T15:15:16;3.33;;;1.92;;